Time;durP1;ratioP1;P1;durP2;ratioP2;P2;SDS_P1;SDS_P2;PMS_P1;PMS_P2;Temp;Humidity;BMP_temperature;BMP_pressure;BME280_temperature;BME280_humidity;BME280_pressure;Samples;Min_cycle;Max_cycle;Signal;HPM_P1;HPM_P2
2022/08/16 00:00:15;;;;;;;16.70;14.53;;;20.90;77.30;;;;;;4903222;28;20051;-68
2022/08/16 00:02:41;;;;;;;16.97;15.27;;;20.90;77.50;;;;;;4935282;29;20125;-68
2022/08/16 00:05:09;;;;;;;20.43;15.20;;;20.80;77.60;;;;;;4916908;29;20123;-68
2022/08/16 00:07:35;;;;;;;17.93;14.70;;;20.80;77.90;;;;;;4913714;29;20035;-68
2022/08/16 00:10:03;;;;;;;17.53;15.63;;;20.80;77.70;;;;;;4912375;29;20050;-68
2022/08/16 00:12:30;;;;;;;18.43;16.47;;;20.80;77.90;;;;;;4910117;29;20551;-68
2022/08/16 00:14:57;;;;;;;18.33;15.73;;;20.80;77.90;;;;;;4931719;29;20082;-68
2022/08/16 00:17:24;;;;;;;17.90;15.23;;;20.80;78.10;;;;;;4911888;29;20523;-68
2022/08/16 00:19:49;;;;;;;17.70;15.27;;;20.80;78.20;;;;;;4906350;29;20047;-68
2022/08/16 00:22:15;;;;;;;18.23;15.90;;;20.80;78.20;;;;;;4928108;29;20039;-68
2022/08/16 00:24:44;;;;;;;16.73;15.03;;;20.80;78.10;;;;;;4935826;28;20506;-68
2022/08/16 00:27:10;;;;;;;19.70;14.57;;;20.80;78.30;;;;;;4929576;28;20436;-68
2022/08/16 00:29:36;;;;;;;20.83;15.03;;;20.80;78.60;;;;;;4923791;29;20039;-67
2022/08/16 00:32:05;;;;;;;19.97;15.73;;;20.80;78.50;;;;;;4914267;28;20043;-67
2022/08/16 00:34:30;;;;;;;18.50;15.30;;;20.80;78.50;;;;;;4925122;29;20673;-67
2022/08/16 00:36:56;;;;;;;18.87;15.33;;;20.80;78.50;;;;;;4892813;29;20047;-68
2022/08/16 00:39:22;;;;;;;18.73;16.13;;;20.80;78.40;;;;;;4934627;29;20043;-68
2022/08/16 00:41:49;;;;;;;17.63;15.23;;;20.80;78.50;;;;;;4930071;29;20047;-68
2022/08/16 00:44:18;;;;;;;23.37;16.00;;;20.80;78.70;;;;;;4931897;28;20046;-68
2022/08/16 00:46:47;;;;;;;19.13;14.97;;;20.90;78.60;;;;;;4928562;29;20043;-68
2022/08/16 00:49:13;;;;;;;19.93;15.33;;;20.90;78.30;;;;;;4930483;28;20168;-68
2022/08/16 00:51:41;;;;;;;17.80;15.70;;;20.90;78.70;;;;;;4935905;28;20043;-68
2022/08/16 00:54:07;;;;;;;19.60;15.47;;;20.90;78.60;;;;;;4911265;29;20061;-68
2022/08/16 00:56:37;;;;;;;18.97;16.03;;;20.90;78.40;;;;;;4935834;28;20271;-68
2022/08/16 00:59:05;;;;;;;21.60;17.43;;;20.90;78.40;;;;;;4930701;28;20376;-68
2022/08/16 01:01:31;;;;;;;19.43;15.90;;;20.90;78.80;;;;;;4928425;28;20895;-68
2022/08/16 01:03:59;;;;;;;18.93;16.03;;;20.90;78.90;;;;;;4905744;28;20103;-68
2022/08/16 01:06:25;;;;;;;21.53;16.77;;;20.90;78.70;;;;;;4900219;28;20051;-68
2022/08/16 01:08:54;;;;;;;19.07;16.40;;;20.90;78.90;;;;;;4922423;28;20219;-68
2022/08/16 01:11:21;;;;;;;21.77;17.23;;;20.90;78.90;;;;;;4931834;28;20039;-68
2022/08/16 01:13:49;;;;;;;18.97;16.73;;;20.90;79.00;;;;;;4937179;28;20286;-68
2022/08/16 01:16:23;;;;;;;18.70;16.70;;;20.90;78.90;;;;;;4924781;29;20051;-68
2022/08/16 01:19:16;;;;;;;23.13;17.33;;;20.90;79.30;;;;;;4914761;28;20125;-68
2022/08/16 01:22:00;;;;;;;20.87;16.47;;;20.90;79.20;;;;;;4918384;28;20063;-68
2022/08/16 01:24:48;;;;;;;21.37;16.67;;;20.90;79.20;;;;;;4926473;29;20190;-68
2022/08/16 01:27:19;;;;;;;22.73;16.20;;;20.90;79.30;;;;;;4910029;29;20047;-68
2022/08/16 01:29:48;;;;;;;23.17;17.03;;;20.80;79.40;;;;;;4925891;28;20043;-68
2022/08/16 01:32:16;;;;;;;20.27;17.17;;;20.80;79.40;;;;;;4917501;29;20095;-68
2022/08/16 01:34:43;;;;;;;17.33;15.47;;;20.80;79.50;;;;;;4913610;28;20164;-68
2022/08/16 01:37:11;;;;;;;19.30;16.57;;;20.80;79.30;;;;;;4932038;28;20050;-68
2022/08/16 01:39:37;;;;;;;21.47;18.47;;;20.70;79.40;;;;;;4924518;28;20051;-68
2022/08/16 01:42:06;;;;;;;19.03;15.63;;;20.70;79.20;;;;;;4929120;29;20496;-68
2022/08/16 01:44:32;;;;;;;18.70;16.33;;;20.70;79.20;;;;;;4930055;28;20074;-68
2022/08/16 01:46:58;;;;;;;19.57;16.30;;;20.70;79.20;;;;;;4914808;29;20039;-68
2022/08/16 01:49:32;;;;;;;18.60;16.10;;;20.60;79.30;;;;;;4914274;28;20098;-68
2022/08/16 01:52:02;;;;;;;22.33;18.23;;;20.60;79.50;;;;;;4922971;29;20051;-68
2022/08/16 01:54:28;;;;;;;18.77;16.30;;;20.50;79.50;;;;;;4929299;28;20428;-68
2022/08/16 01:56:54;;;;;;;22.13;16.60;;;20.50;79.30;;;;;;4923439;29;20047;-68
2022/08/16 01:59:22;;;;;;;20.37;16.73;;;20.40;79.40;;;;;;4925736;28;20039;-68
2022/08/16 02:01:50;;;;;;;19.87;16.67;;;20.40;80.00;;;;;;4926729;28;20043;-67
2022/08/16 02:04:18;;;;;;;25.73;17.00;;;20.30;80.00;;;;;;4921680;28;20043;-67
2022/08/16 02:06:44;;;;;;;20.23;17.10;;;20.30;80.30;;;;;;4907892;29;20067;-68
2022/08/16 02:09:11;;;;;;;21.80;18.07;;;20.30;80.20;;;;;;4925783;28;20117;-68
2022/08/16 02:11:39;;;;;;;24.97;18.43;;;20.20;80.50;;;;;;4927348;29;20507;-68
2022/08/16 02:14:05;;;;;;;20.07;17.87;;;20.10;80.40;;;;;;4926160;29;20496;-68
2022/08/16 02:16:31;;;;;;;23.50;18.27;;;20.10;80.60;;;;;;4928960;29;20047;-68
2022/08/16 02:18:58;;;;;;;21.50;18.03;;;20.10;80.90;;;;;;4902231;28;20046;-68
2022/08/16 02:21:24;;;;;;;21.20;17.97;;;20.00;80.80;;;;;;4927610;29;20062;-68
2022/08/16 02:23:49;;;;;;;24.13;19.23;;;20.00;80.80;;;;;;4931927;28;20388;-68
2022/08/16 02:26:15;;;;;;;23.43;18.40;;;19.90;80.80;;;;;;4929686;29;20182;-67
2022/08/16 02:28:42;;;;;;;24.27;19.80;;;19.90;81.10;;;;;;4924349;28;20498;-68
2022/08/16 02:31:10;;;;;;;21.37;18.20;;;19.90;81.20;;;;;;4913675;29;20035;-68
2022/08/16 02:33:37;;;;;;;23.60;19.47;;;19.80;81.40;;;;;;4928527;29;20082;-68
2022/08/16 02:36:04;;;;;;;25.33;20.83;;;19.80;81.40;;;;;;4926073;29;20578;-67
2022/08/16 02:38:31;;;;;;;24.50;19.07;;;19.70;81.70;;;;;;4925012;29;20054;-67
2022/08/16 02:40:59;;;;;;;22.73;19.30;;;19.70;81.60;;;;;;4922975;29;20463;-68
2022/08/16 02:43:28;;;;;;;27.27;20.60;;;19.70;81.60;;;;;;4914682;29;20054;-68
2022/08/16 02:45:54;;;;;;;22.50;18.50;;;19.60;81.70;;;;;;4918331;29;20039;-68
2022/08/16 02:48:20;;;;;;;22.93;19.13;;;19.60;81.80;;;;;;4932263;28;20039;-68
2022/08/16 02:50:46;;;;;;;23.73;20.10;;;19.50;81.70;;;;;;4943191;28;20035;-68
2022/08/16 02:53:12;;;;;;;25.87;19.27;;;19.50;81.90;;;;;;4929901;29;20252;-67
2022/08/16 02:55:38;;;;;;;26.83;19.80;;;19.40;82.50;;;;;;4925356;29;20090;-67
2022/08/16 02:58:04;;;;;;;25.77;21.23;;;19.40;82.20;;;;;;4904461;29;20062;-68
2022/08/16 03:00:30;;;;;;;25.90;20.20;;;19.40;82.20;;;;;;4932786;29;20126;-68
2022/08/16 03:02:56;;;;;;;24.67;19.87;;;19.40;82.50;;;;;;4925226;29;20109;-68
2022/08/16 03:05:22;;;;;;;23.00;18.67;;;19.30;82.30;;;;;;4918122;29;20491;-68
2022/08/16 03:07:48;;;;;;;23.23;19.70;;;19.30;82.40;;;;;;4923009;28;20289;-68
2022/08/16 03:10:14;;;;;;;25.93;20.40;;;19.30;82.50;;;;;;4929827;29;20287;-68
2022/08/16 03:12:42;;;;;;;26.00;21.27;;;19.20;82.60;;;;;;4915006;29;20047;-68
2022/08/16 03:15:10;;;;;;;24.77;21.10;;;19.20;82.70;;;;;;4937585;29;20533;-68
2022/08/16 03:17:36;;;;;;;27.47;22.77;;;19.10;82.80;;;;;;4930432;29;20296;-67
2022/08/16 03:20:05;;;;;;;26.07;22.50;;;19.10;82.80;;;;;;4927916;28;20302;-68
2022/08/16 03:22:30;;;;;;;26.43;21.17;;;19.10;83.10;;;;;;4927395;28;20130;-67
2022/08/16 03:24:58;;;;;;;26.07;20.60;;;19.10;83.10;;;;;;4927128;28;20366;-67
2022/08/16 03:27:26;;;;;;;26.97;21.57;;;19.10;83.00;;;;;;4930794;29;20495;-68
2022/08/16 03:29:51;;;;;;;27.60;22.83;;;19.00;83.30;;;;;;4928003;29;20291;-68
2022/08/16 03:32:17;;;;;;;25.00;21.40;;;19.00;83.10;;;;;;4928449;29;20808;-67
2022/08/16 03:34:45;;;;;;;27.63;21.10;;;19.00;83.20;;;;;;4929178;29;20051;-68
2022/08/16 03:37:11;;;;;;;27.70;22.23;;;19.00;82.90;;;;;;4930949;28;20302;-67
2022/08/16 03:39:38;;;;;;;29.03;23.73;;;18.90;83.20;;;;;;4907046;28;20859;-68
2022/08/16 03:42:04;;;;;;;29.13;22.60;;;18.90;83.20;;;;;;4922293;28;20291;-67
2022/08/16 03:44:31;;;;;;;29.30;23.03;;;18.90;83.20;;;;;;4916360;28;20314;-67
2022/08/16 03:46:57;;;;;;;27.13;22.17;;;18.90;83.50;;;;;;4931443;29;20651;-68
2022/08/16 03:49:23;;;;;;;25.13;22.03;;;18.80;83.40;;;;;;4930109;28;20289;-67
2022/08/16 03:51:49;;;;;;;27.50;22.13;;;18.80;83.60;;;;;;4910421;29;20292;-68
2022/08/16 03:54:15;;;;;;;27.00;22.40;;;18.80;83.90;;;;;;4918147;28;20118;-68
2022/08/16 03:56:41;;;;;;;27.20;21.67;;;18.70;83.90;;;;;;4924022;29;20058;-68
2022/08/16 03:59:07;;;;;;;25.67;21.87;;;18.70;83.80;;;;;;4918298;28;20847;-67
2022/08/16 04:01:33;;;;;;;26.90;21.70;;;18.60;83.90;;;;;;4930868;28;20282;-68
2022/08/16 04:03:59;;;;;;;27.10;21.20;;;18.60;84.00;;;;;;4916399;28;20654;-67
2022/08/16 04:06:25;;;;;;;24.00;20.63;;;18.60;83.90;;;;;;4917164;29;20332;-67
2022/08/16 04:08:51;;;;;;;27.90;21.80;;;18.60;84.10;;;;;;4925704;28;20394;-67
2022/08/16 04:11:17;;;;;;;29.33;22.67;;;18.50;84.00;;;;;;4933325;29;20146;-67
2022/08/16 04:13:44;;;;;;;29.00;23.13;;;18.50;84.00;;;;;;4915345;28;20043;-68
2022/08/16 04:16:11;;;;;;;25.47;21.23;;;18.40;84.00;;;;;;4932284;28;20284;-67
2022/08/16 04:18:37;;;;;;;27.70;21.73;;;18.40;84.10;;;;;;4925404;29;20334;-67
2022/08/16 04:21:04;;;;;;;26.23;22.03;;;18.40;84.10;;;;;;4911744;28;20291;-68
2022/08/16 04:23:30;;;;;;;32.20;22.03;;;18.30;84.00;;;;;;4916397;29;20306;-67
2022/08/16 04:25:56;;;;;;;25.67;21.03;;;18.30;84.10;;;;;;4925516;29;20826;-67
2022/08/16 04:28:21;;;;;;;29.10;22.83;;;18.30;84.10;;;;;;4925987;28;20378;-67
2022/08/16 04:30:47;;;;;;;26.73;21.67;;;18.20;84.30;;;;;;4919307;28;20420;-67
2022/08/16 04:33:13;;;;;;;27.87;22.10;;;18.20;84.40;;;;;;4915508;28;20071;-67
2022/08/16 04:35:39;;;;;;;30.73;24.13;;;18.20;84.40;;;;;;4910572;29;20083;-67
2022/08/16 04:38:05;;;;;;;29.00;22.80;;;18.20;84.50;;;;;;4907040;28;20040;-67
2022/08/16 04:40:31;;;;;;;28.13;22.43;;;18.20;84.80;;;;;;4915013;28;20039;-67
2022/08/16 04:42:59;;;;;;;28.77;23.13;;;18.20;84.80;;;;;;4926826;28;20310;-67
2022/08/16 04:45:25;;;;;;;32.67;23.90;;;18.30;85.10;;;;;;4907859;29;20695;-67
2022/08/16 04:47:51;;;;;;;28.50;22.87;;;18.30;84.70;;;;;;4930821;29;20287;-68
2022/08/16 04:50:23;;;;;;;26.53;22.07;;;18.30;85.00;;;;;;4919483;29;20597;-68
2022/08/16 04:52:50;;;;;;;31.50;22.67;;;18.30;84.70;;;;;;4924874;28;20168;-68
2022/08/16 04:55:20;;;;;;;28.63;22.43;;;18.40;84.70;;;;;;4926698;29;20315;-68
2022/08/16 04:57:48;;;;;;;30.13;22.43;;;18.40;84.90;;;;;;4922555;28;20351;-68
2022/08/16 05:00:34;;;;;;;29.23;22.33;;;18.40;85.00;;;;;;4921386;29;20379;-68
2022/08/16 05:03:07;;;;;;;29.17;22.43;;;18.50;84.80;;;;;;4928550;29;20329;-67
2022/08/16 05:05:32;;;;;;;28.87;23.00;;;18.50;84.60;;;;;;4930696;28;20287;-68
2022/08/16 05:07:59;;;;;;;26.83;22.10;;;18.60;84.50;;;;;;4897729;29;20358;-68
2022/08/16 05:10:25;;;;;;;28.80;22.53;;;18.60;84.40;;;;;;4927168;28;20042;-68
2022/08/16 05:12:51;;;;;;;29.73;22.30;;;18.70;84.30;;;;;;4929955;29;20294;-67
2022/08/16 05:15:17;;;;;;;26.27;21.73;;;18.70;84.40;;;;;;4926008;29;20290;-68
2022/08/16 05:17:42;;;;;;;28.50;22.37;;;18.70;84.10;;;;;;4909436;28;20040;-68
2022/08/16 05:20:09;;;;;;;28.37;23.00;;;18.80;84.00;;;;;;4928397;28;20043;-68
2022/08/16 05:22:37;;;;;;;27.47;21.67;;;18.80;83.80;;;;;;4930319;28;20101;-67
2022/08/16 05:25:07;;;;;;;25.43;21.70;;;18.90;83.80;;;;;;4921962;28;20674;-68
2022/08/16 05:27:33;;;;;;;27.70;20.80;;;18.90;83.80;;;;;;4927053;29;20564;-67
2022/08/16 05:29:59;;;;;;;27.60;21.03;;;19.00;83.50;;;;;;4904742;28;20290;-68
2022/08/16 05:32:25;;;;;;;24.23;20.87;;;19.10;83.30;;;;;;4913869;29;20043;-68
2022/08/16 05:34:50;;;;;;;27.50;21.47;;;19.20;83.00;;;;;;4914144;29;20154;-68
2022/08/16 05:37:16;;;;;;;25.53;21.63;;;19.20;82.70;;;;;;4916749;29;20039;-68
2022/08/16 05:39:42;;;;;;;27.50;20.30;;;19.30;82.70;;;;;;4914356;28;20050;-68
2022/08/16 05:42:07;;;;;;;26.77;20.97;;;19.40;82.30;;;;;;4914150;29;20040;-68
2022/08/16 05:44:33;;;;;;;25.77;20.83;;;19.50;82.00;;;;;;4915962;29;20047;-68
2022/08/16 05:47:00;;;;;;;29.27;20.30;;;19.60;82.00;;;;;;4913214;29;20098;-67
2022/08/16 05:49:28;;;;;;;27.77;20.67;;;19.70;81.80;;;;;;4897567;28;20814;-68
2022/08/16 05:51:54;;;;;;;30.20;21.43;;;19.80;81.50;;;;;;4916509;29;20125;-68
2022/08/16 05:54:21;;;;;;;26.20;21.13;;;19.90;81.30;;;;;;4912238;28;20062;-68
2022/08/16 05:56:47;;;;;;;25.90;21.27;;;19.90;81.10;;;;;;4915671;29;20435;-68
2022/08/16 05:59:14;;;;;;;25.00;20.73;;;20.00;81.00;;;;;;4928110;28;20121;-68
2022/08/16 06:01:42;;;;;;;31.43;21.37;;;20.10;80.70;;;;;;4910365;28;20488;-67
2022/08/16 06:04:11;;;;;;;27.53;21.20;;;20.20;80.50;;;;;;4899512;28;20047;-68
2022/08/16 06:06:38;;;;;;;26.77;20.93;;;20.30;80.40;;;;;;4928827;29;20110;-68
2022/08/16 06:09:04;;;;;;;26.00;19.90;;;20.50;80.50;;;;;;4942175;28;20050;-68
2022/08/16 06:11:30;;;;;;;27.50;20.93;;;20.60;80.40;;;;;;4929353;29;20035;-68
2022/08/16 06:13:56;;;;;;;24.23;19.70;;;20.70;80.30;;;;;;4892267;28;20050;-68
2022/08/16 06:16:22;;;;;;;24.90;19.87;;;20.80;79.90;;;;;;4894435;29;20427;-68
2022/08/16 06:18:47;;;;;;;23.23;20.73;;;20.90;79.50;;;;;;4913538;28;20043;-68
2022/08/16 06:21:14;;;;;;;27.13;20.40;;;21.00;79.40;;;;;;4912783;28;20047;-68
2022/08/16 06:23:40;;;;;;;23.77;20.00;;;21.10;79.20;;;;;;4926325;28;20047;-67
2022/08/16 06:26:07;;;;;;;24.77;20.40;;;21.20;79.00;;;;;;4928629;29;20349;-68
2022/08/16 06:28:33;;;;;;;24.67;19.27;;;21.30;78.90;;;;;;4919705;28;20400;-68
2022/08/16 06:30:59;;;;;;;23.00;19.17;;;21.40;78.70;;;;;;4927230;28;20043;-68
2022/08/16 06:33:25;;;;;;;24.30;19.90;;;21.50;78.70;;;;;;4914614;28;20546;-67
2022/08/16 06:35:53;;;;;;;26.37;20.73;;;21.70;78.50;;;;;;4923640;29;20102;-68
2022/08/16 06:38:20;;;;;;;24.23;20.93;;;21.70;78.60;;;;;;4926694;29;20058;-68
2022/08/16 06:40:45;;;;;;;24.37;20.33;;;21.90;78.60;;;;;;4897797;29;20046;-68
2022/08/16 06:43:11;;;;;;;25.53;20.87;;;22.00;78.60;;;;;;4883233;29;20052;-68
2022/08/16 06:45:37;;;;;;;22.07;18.30;;;22.20;78.40;;;;;;4910205;28;20054;-68
2022/08/16 06:48:06;;;;;;;23.43;20.50;;;22.40;78.00;;;;;;4909620;28;20046;-68
2022/08/16 06:50:34;;;;;;;24.30;19.63;;;22.60;77.80;;;;;;4924514;28;20141;-68
2022/08/16 06:53:00;;;;;;;24.57;19.23;;;22.90;77.30;;;;;;4917519;29;20071;-67
2022/08/16 06:55:27;;;;;;;24.57;19.90;;;23.20;76.70;;;;;;4923864;29;20068;-67
2022/08/16 06:57:53;;;;;;;23.87;17.73;;;23.50;75.80;;;;;;4920355;29;20044;-67
2022/08/16 07:00:20;;;;;;;20.93;17.77;;;23.80;73.80;;;;;;4906261;29;20179;-68
2022/08/16 07:02:46;;;;;;;23.20;17.87;;;23.80;72.40;;;;;;4923934;29;20501;-67
2022/08/16 07:05:14;;;;;;;22.43;18.30;;;23.80;72.70;;;;;;4907989;29;20051;-68
2022/08/16 07:07:44;;;;;;;20.73;18.53;;;23.80;72.00;;;;;;4921856;29;20054;-68
2022/08/16 07:10:10;;;;;;;26.00;20.07;;;23.40;72.40;;;;;;4920310;29;20051;-67
2022/08/16 07:12:37;;;;;;;23.23;18.00;;;23.30;72.20;;;;;;4907151;29;20468;-67
2022/08/16 07:15:04;;;;;;;24.10;18.97;;;23.30;73.10;;;;;;4921494;29;20104;-67
2022/08/16 07:17:31;;;;;;;23.37;17.43;;;23.10;72.50;;;;;;4893828;29;20492;-68
2022/08/16 07:19:58;;;;;;;22.03;18.50;;;23.20;72.60;;;;;;4921467;29;20055;-67
2022/08/16 07:22:24;;;;;;;25.60;20.03;;;23.30;72.50;;;;;;4941046;28;20075;-68
2022/08/16 07:24:50;;;;;;;25.97;19.53;;;23.40;72.00;;;;;;4924417;29;20042;-68
2022/08/16 07:27:16;;;;;;;22.60;19.00;;;23.50;71.70;;;;;;4918020;29;20118;-68
2022/08/16 07:29:42;;;;;;;26.40;20.67;;;23.60;71.60;;;;;;4922937;29;20551;-68
2022/08/16 07:32:08;;;;;;;26.73;21.53;;;23.70;71.40;;;;;;4923466;29;20066;-68
2022/08/16 07:34:34;;;;;;;27.50;22.67;;;23.80;71.80;;;;;;4895736;29;20405;-68
2022/08/16 07:37:05;;;;;;;28.63;21.77;;;23.90;71.90;;;;;;4915796;29;20040;-68
2022/08/16 07:39:31;;;;;;;28.93;22.73;;;24.00;71.80;;;;;;4908543;29;20047;-68
2022/08/16 07:41:56;;;;;;;27.87;23.23;;;24.10;71.60;;;;;;4923342;29;20420;-68
2022/08/16 07:44:22;;;;;;;31.27;24.00;;;24.20;71.20;;;;;;4907723;29;20119;-68
2022/08/16 07:46:48;;;;;;;30.23;23.43;;;24.30;70.90;;;;;;4923917;29;20496;-68
2022/08/16 07:49:14;;;;;;;31.47;23.27;;;24.40;70.90;;;;;;4926247;29;20469;-68
2022/08/16 07:51:40;;;;;;;28.63;21.70;;;24.40;70.90;;;;;;4925381;29;20054;-68
2022/08/16 07:54:08;;;;;;;24.93;19.10;;;24.30;70.80;;;;;;4929321;29;20397;-68
2022/08/16 07:56:34;;;;;;;29.67;20.07;;;24.30;70.70;;;;;;4911986;29;20411;-68
2022/08/16 07:59:00;;;;;;;28.90;20.90;;;24.20;71.00;;;;;;4912018;29;20054;-68
2022/08/16 08:01:28;;;;;;;31.47;22.53;;;24.20;70.70;;;;;;4909013;29;20377;-68
2022/08/16 08:03:55;;;;;;;28.97;22.40;;;24.10;71.10;;;;;;4890875;29;20557;-67
2022/08/16 08:06:23;;;;;;;27.10;23.27;;;24.10;70.90;;;;;;4912023;29;20111;-68
2022/08/16 08:08:49;;;;;;;25.80;21.80;;;24.10;71.00;;;;;;4928177;29;20084;-68
2022/08/16 08:11:15;;;;;;;26.93;21.57;;;24.10;71.20;;;;;;4922463;29;20063;-68
2022/08/16 08:13:42;;;;;;;25.03;20.60;;;24.20;71.00;;;;;;4901635;29;20422;-68
2022/08/16 08:16:11;;;;;;;27.57;21.87;;;24.20;71.20;;;;;;4920954;29;20083;-68
2022/08/16 08:18:36;;;;;;;28.50;22.90;;;24.30;70.40;;;;;;4922858;29;20047;-68
2022/08/16 08:21:02;;;;;;;28.57;23.47;;;24.40;70.50;;;;;;4920396;29;20070;-68
2022/08/16 08:23:28;;;;;;;24.03;20.30;;;24.30;70.80;;;;;;4910627;29;20076;-68
2022/08/16 08:25:54;;;;;;;24.07;20.17;;;24.40;70.70;;;;;;4925132;29;20047;-68
2022/08/16 08:28:20;;;;;;;25.90;21.10;;;24.50;69.80;;;;;;4921656;29;20073;-68
2022/08/16 08:30:46;;;;;;;31.00;22.00;;;24.50;69.40;;;;;;4906744;29;20047;-69
2022/08/16 08:33:11;;;;;;;27.30;22.27;;;24.60;69.40;;;;;;4912713;29;20514;-68
2022/08/16 08:35:38;;;;;;;23.83;20.57;;;24.50;69.40;;;;;;4926808;29;20599;-68
2022/08/16 08:38:07;;;;;;;19.80;16.87;;;24.40;69.60;;;;;;4873443;28;20067;-69
2022/08/16 08:40:34;;;;;;;20.13;16.83;;;24.50;68.50;;;;;;4923486;29;20052;-69
2022/08/16 08:43:01;;;;;;;24.43;18.13;;;24.50;68.20;;;;;;4923197;29;20054;-69
2022/08/16 08:45:29;;;;;;;20.63;17.00;;;24.60;68.50;;;;;;4923278;29;20059;-69
2022/08/16 08:47:55;;;;;;;21.57;16.90;;;24.70;68.00;;;;;;4923778;29;20066;-69
2022/08/16 08:50:22;;;;;;;19.43;15.40;;;24.80;66.60;;;;;;4923094;29;20127;-69
2022/08/16 08:52:50;;;;;;;20.23;17.00;;;24.80;66.40;;;;;;4925586;29;20128;-67
2022/08/16 08:55:21;;;;;;;21.27;17.60;;;24.90;66.60;;;;;;4923772;29;20052;-69
2022/08/16 08:57:48;;;;;;;21.57;17.40;;;25.00;66.00;;;;;;4922648;29;20457;-68
2022/08/16 09:00:17;;;;;;;24.27;18.90;;;25.10;65.60;;;;;;4925107;29;20522;-69
2022/08/16 09:02:44;;;;;;;22.67;17.80;;;25.30;65.40;;;;;;4908627;29;20043;-68
2022/08/16 09:05:11;;;;;;;23.07;17.93;;;25.30;65.40;;;;;;4924921;29;20036;-69
2022/08/16 09:07:37;;;;;;;17.37;15.20;;;25.50;65.70;;;;;;4922950;29;20039;-69
2022/08/16 09:10:06;;;;;;;16.37;12.97;;;25.50;64.80;;;;;;4912185;29;20040;-69
2022/08/16 09:12:32;;;;;;;18.03;14.20;;;25.50;62.90;;;;;;4926059;29;20423;-69
2022/08/16 09:14:58;;;;;;;21.63;16.40;;;25.60;62.70;;;;;;4900684;29;20123;-68
2022/08/16 09:17:24;;;;;;;16.97;14.57;;;25.70;62.40;;;;;;4926174;29;20503;-69
2022/08/16 09:19:50;;;;;;;17.47;15.00;;;25.70;62.20;;;;;;4905902;29;20055;-69
2022/08/16 09:22:17;;;;;;;19.10;15.83;;;25.60;62.30;;;;;;4909746;29;20043;-69
2022/08/16 09:24:43;;;;;;;21.30;16.20;;;25.60;62.70;;;;;;4926417;29;20043;-69
2022/08/16 09:27:09;;;;;;;15.37;12.83;;;25.70;63.00;;;;;;4924401;29;20055;-69
2022/08/16 09:29:35;;;;;;;17.07;14.17;;;25.80;63.00;;;;;;4910839;29;20075;-69
2022/08/16 09:32:01;;;;;;;16.63;13.90;;;25.80;62.40;;;;;;4910411;29;20145;-68
2022/08/16 09:34:28;;;;;;;16.93;13.97;;;26.00;62.40;;;;;;4927156;29;20071;-70
2022/08/16 09:36:56;;;;;;;16.00;11.97;;;26.10;61.20;;;;;;4927950;29;20671;-69
2022/08/16 09:39:24;;;;;;;16.80;14.43;;;26.10;62.00;;;;;;4909215;29;20187;-69
2022/08/16 09:41:50;;;;;;;19.77;14.97;;;26.10;61.50;;;;;;4926353;29;20047;-69
2022/08/16 09:44:19;;;;;;;14.80;13.20;;;26.20;61.30;;;;;;4907385;29;20071;-69
2022/08/16 09:46:45;;;;;;;14.33;12.50;;;26.20;60.30;;;;;;4905642;29;20361;-69
2022/08/16 09:49:10;;;;;;;17.77;12.80;;;26.20;60.30;;;;;;4910088;29;20036;-70
2022/08/16 09:51:36;;;;;;;18.37;13.50;;;26.40;60.50;;;;;;4910855;29;20046;-69
2022/08/16 09:54:04;;;;;;;19.17;14.23;;;26.50;60.10;;;;;;4909598;29;20376;-69
2022/08/16 09:56:34;;;;;;;15.67;14.03;;;26.70;60.20;;;;;;4923978;29;20106;-69
2022/08/16 09:59:02;;;;;;;14.13;12.43;;;26.70;58.90;;;;;;4909493;29;20500;-70
2022/08/16 10:01:27;;;;;;;17.83;13.40;;;26.70;58.70;;;;;;4929364;29;20039;-70
2022/08/16 10:03:54;;;;;;;15.43;12.33;;;26.70;58.60;;;;;;4902453;29;20035;-69
2022/08/16 10:06:21;;;;;;;14.13;12.70;;;26.80;58.60;;;;;;4923723;29;20040;-69
2022/08/16 10:08:50;;;;;;;12.80;10.07;;;27.00;58.80;;;;;;4902947;29;20063;-69
2022/08/16 10:14:01;;;;;;;13.00;10.60;;;27.20;58.00;;;;;;4923476;29;20590;-69
2022/08/16 10:16:27;;;;;;;15.00;12.77;;;27.20;57.10;;;;;;4926911;29;20036;-69
2022/08/16 10:18:53;;;;;;;13.33;11.77;;;27.20;56.50;;;;;;4921172;29;20044;-69
2022/08/16 10:21:18;;;;;;;13.50;12.00;;;27.10;57.50;;;;;;4907516;29;20400;-69
2022/08/16 10:23:45;;;;;;;18.17;14.27;;;27.20;57.60;;;;;;4927055;29;20051;-69
2022/08/16 10:26:11;;;;;;;17.90;13.20;;;27.30;57.70;;;;;;4924804;29;20055;-69
2022/08/16 10:28:37;;;;;;;17.03;14.17;;;27.20;58.40;;;;;;4904717;29;20055;-69
2022/08/16 10:31:04;;;;;;;21.03;15.80;;;27.30;58.80;;;;;;4924986;29;20040;-70
2022/08/16 10:33:32;;;;;;;17.63;14.47;;;27.50;58.20;;;;;;4924684;29;20050;-69
2022/08/16 10:35:59;;;;;;;19.33;16.37;;;27.60;58.50;;;;;;4914705;29;20052;-69
2022/08/16 10:38:26;;;;;;;18.03;15.77;;;27.70;58.10;;;;;;4907782;29;20055;-69
2022/08/16 10:40:53;;;;;;;20.47;15.83;;;27.80;58.10;;;;;;4907617;29;20040;-68
2022/08/16 10:43:19;;;;;;;19.73;17.53;;;27.70;58.60;;;;;;4907346;29;20063;-68
2022/08/16 10:45:46;;;;;;;20.37;17.53;;;27.90;58.50;;;;;;4924310;29;20036;-68
2022/08/16 10:48:14;;;;;;;22.53;18.60;;;28.10;58.20;;;;;;4922100;29;20047;-68
2022/08/16 10:50:41;;;;;;;23.47;18.17;;;28.20;57.90;;;;;;4919168;29;20447;-69
2022/08/16 10:53:06;;;;;;;22.40;17.73;;;28.30;57.70;;;;;;4853782;29;20520;-69
2022/08/16 10:55:38;;;;;;;14.87;12.50;;;28.30;57.40;;;;;;4922457;29;20058;-69
2022/08/16 10:58:06;;;;;;;15.13;12.27;;;28.10;56.00;;;;;;4922464;29;20040;-68
2022/08/16 11:00:32;;;;;;;15.20;13.60;;;28.10;56.20;;;;;;4926172;29;20063;-68
2022/08/16 11:03:02;;;;;;;17.93;13.60;;;27.90;57.20;;;;;;4911021;29;20295;-68
2022/08/16 11:05:31;;;;;;;16.00;12.63;;;27.80;56.90;;;;;;4923487;29;20118;-69
2022/08/16 11:07:57;;;;;;;15.43;11.73;;;27.80;57.10;;;;;;4908919;29;20028;-68
2022/08/16 11:10:34;;;;;;;15.23;13.13;;;27.80;56.80;;;;;;4906715;29;20044;-69
2022/08/16 11:13:03;;;;;;;16.77;12.90;;;27.60;56.10;;;;;;4926288;29;20441;-70
2022/08/16 11:15:29;;;;;;;13.30;11.87;;;27.60;56.40;;;;;;4928429;29;20043;-69
2022/08/16 11:17:55;;;;;;;15.03;11.53;;;27.60;57.30;;;;;;4930212;29;20388;-69
2022/08/16 11:20:21;;;;;;;13.20;11.57;;;27.60;57.20;;;;;;4911993;29;20051;-69
2022/08/16 11:22:48;;;;;;;13.43;12.03;;;27.50;57.20;;;;;;4929522;29;20039;-69
2022/08/16 11:25:26;;;;;;;16.73;13.03;;;27.70;57.80;;;;;;4926598;29;20040;-69
2022/08/16 11:27:53;;;;;;;15.60;13.70;;;27.80;58.40;;;;;;4928024;29;20491;-69
2022/08/16 11:30:20;;;;;;;15.23;11.87;;;27.80;56.90;;;;;;4926198;29;20035;-68
2022/08/16 11:32:46;;;;;;;15.10;13.00;;;27.80;58.30;;;;;;4926568;29;20051;-69
2022/08/16 11:35:19;;;;;;;14.70;12.10;;;27.80;57.30;;;;;;4928426;29;20036;-70
2022/08/16 11:37:47;;;;;;;14.97;10.87;;;27.80;57.40;;;;;;4929215;29;20039;-69
2022/08/16 11:40:14;;;;;;;16.50;12.23;;;28.00;57.30;;;;;;4922480;29;21044;-69
2022/08/16 11:42:40;;;;;;;14.37;10.30;;;28.10;57.30;;;;;;4912117;29;20535;-69
2022/08/16 11:45:06;;;;;;;13.43;11.13;;;28.20;56.90;;;;;;4928223;29;20039;-69
2022/08/16 11:47:32;;;;;;;12.17;9.63;;;28.20;56.00;;;;;;4905761;29;20040;-70
2022/08/16 11:49:59;;;;;;;14.10;9.90;;;28.20;56.00;;;;;;4910612;29;20036;-69
2022/08/16 11:52:25;;;;;;;16.80;9.60;;;28.30;56.00;;;;;;4942960;28;20067;-69
2022/08/16 11:54:51;;;;;;;13.63;11.37;;;28.30;55.60;;;;;;4932607;29;20091;-69
2022/08/16 11:57:17;;;;;;;13.63;10.60;;;28.30;56.00;;;;;;4915218;29;20063;-68
2022/08/16 11:59:42;;;;;;;15.73;9.90;;;28.20;56.00;;;;;;4914041;29;20791;-68
2022/08/16 12:02:09;;;;;;;14.30;11.43;;;28.10;56.30;;;;;;4901032;29;20039;-68
2022/08/16 12:04:35;;;;;;;9.83;8.83;;;28.10;56.00;;;;;;4927199;29;20058;-69
2022/08/16 12:07:06;;;;;;;9.90;8.90;;;28.20;56.30;;;;;;4925168;29;20500;-69
2022/08/16 12:09:33;;;;;;;12.80;8.63;;;28.50;56.60;;;;;;4907252;29;20600;-69
2022/08/16 12:11:59;;;;;;;12.23;9.27;;;28.60;56.20;;;;;;4910851;29;20043;-69
2022/08/16 12:14:25;;;;;;;13.20;9.37;;;28.70;54.90;;;;;;4926221;29;20040;-69
2022/08/16 12:16:54;;;;;;;18.13;11.63;;;28.60;54.80;;;;;;4934647;29;20110;-69
2022/08/16 12:19:21;;;;;;;13.83;9.80;;;28.50;56.20;;;;;;4908006;29;20048;-69
2022/08/16 12:21:49;;;;;;;14.17;12.00;;;28.50;56.50;;;;;;4909173;29;20123;-70
2022/08/16 12:24:15;;;;;;;13.23;11.73;;;28.60;56.10;;;;;;4921611;29;20052;-69
2022/08/16 12:26:41;;;;;;;15.87;10.63;;;28.50;56.80;;;;;;4913232;29;20036;-69
2022/08/16 12:29:07;;;;;;;12.50;9.40;;;28.50;56.40;;;;;;4907896;29;20497;-69